createdAt,value
2023-04-04T00:01:36.209Z,39.40
2023-04-04T00:06:37.856Z,40.82
2023-04-04T00:11:41.828Z,41.79
2023-04-04T00:16:43.548Z,42.33
2023-04-04T00:21:47.907Z,42.72
2023-04-04T00:26:49.540Z,42.71
2023-04-04T00:31:51.160Z,42.25
2023-04-04T00:36:53.777Z,42.98
2023-04-04T00:41:55.441Z,43.10
2023-04-04T00:46:57.153Z,42.79
2023-04-04T00:51:59.391Z,41.90
2023-04-04T00:57:02.262Z,40.77
2023-04-04T01:02:04.256Z,41.37
2023-04-04T01:07:06.124Z,42.52
2023-04-04T01:12:07.909Z,42.89
2023-04-04T01:17:09.799Z,43.53
2023-04-04T01:22:14.329Z,43.88
2023-04-04T01:27:16.394Z,44.08
2023-04-04T01:32:28.323Z,44.60
2023-04-04T01:37:56.750Z,44.99
2023-04-04T01:42:58.766Z,45.39
2023-04-04T01:48:00.486Z,45.96
2023-04-04T01:53:02.657Z,46.25
2023-04-04T01:58:04.276Z,46.27
2023-04-04T02:03:05.921Z,46.21
2023-04-04T02:08:07.680Z,46.81
2023-04-04T02:13:09.300Z,46.84
2023-04-04T02:18:11.073Z,47.52
2023-04-04T02:23:12.705Z,46.97
2023-04-04T02:28:14.264Z,46.53
2023-04-04T02:33:15.884Z,46.09
2023-04-04T02:38:17.504Z,46.17
2023-04-04T02:43:19.177Z,45.92
2023-04-04T02:48:21.067Z,46.38
2023-04-04T02:53:22.944Z,46.29
2023-04-04T02:58:24.536Z,46.16
2023-04-04T03:03:27.504Z,45.96
2023-04-04T03:08:29.346Z,46.49
2023-04-04T03:13:31.000Z,45.99
2023-04-04T03:18:34.725Z,46.64
2023-04-04T03:23:36.365Z,47.12
2023-04-04T03:28:38.306Z,47.09
2023-04-04T03:33:40.847Z,47.43
2023-04-04T03:38:42.680Z,48.02
2023-04-04T03:43:45.225Z,48.45
2023-04-04T03:48:46.858Z,48.86
2023-04-04T03:53:48.451Z,48.42
2023-04-04T03:58:50.098Z,48.64
2023-04-04T04:03:51.833Z,48.67
2023-04-04T04:08:53.539Z,49.23
2023-04-04T04:13:55.807Z,49.66
2023-04-04T04:18:57.592Z,48.99
2023-04-04T04:23:59.206Z,49.15
2023-04-04T04:29:01.869Z,49.53
2023-04-04T04:34:11.130Z,49.46
2023-04-04T04:39:12.747Z,49.24
2023-04-04T04:44:14.365Z,49.60
2023-04-04T04:49:16.071Z,50.74
2023-04-04T04:54:17.671Z,50.46
2023-04-04T04:59:19.422Z,50.71
2023-04-04T05:04:21.209Z,50.47
2023-04-04T05:09:22.826Z,49.83
2023-04-04T05:14:24.576Z,50.64
2023-04-04T05:19:26.612Z,50.57
2023-04-04T05:24:28.701Z,50.02
2023-04-04T05:29:30.323Z,50.11
2023-04-04T05:34:32.277Z,51.03
2023-04-04T05:39:33.999Z,50.23
2023-04-04T05:44:37.281Z,50.00
2023-04-04T05:49:38.953Z,49.53
2023-04-04T05:54:40.562Z,49.54
2023-04-04T05:59:42.300Z,48.96
2023-04-04T06:04:45.510Z,50.04
2023-04-04T06:09:48.293Z,49.73
2023-04-04T06:14:49.929Z,49.22
2023-04-04T06:19:51.677Z,47.69
2023-04-04T06:24:53.254Z,46.66
2023-04-04T06:29:54.817Z,46.19
2023-04-04T06:34:56.489Z,45.21
2023-04-04T06:39:58.331Z,43.91
2023-04-04T06:44:59.890Z,42.31
2023-04-04T06:50:01.537Z,41.46
2023-04-04T06:55:04.373Z,39.93
2023-04-04T07:00:08.370Z,40.21
2023-04-04T07:05:10.681Z,40.19
2023-04-04T07:10:12.339Z,40.43
2023-04-04T07:15:13.981Z,39.75
2023-04-04T07:20:15.717Z,39.18
2023-04-04T07:25:17.455Z,39.12
2023-04-04T07:30:19.116Z,36.52
2023-04-04T07:35:20.750Z,37.63
2023-04-04T07:40:22.549Z,37.11
2023-04-04T07:45:24.181Z,36.57
2023-04-04T07:50:26.465Z,36.24
2023-04-04T07:55:30.999Z,36.63
2023-04-04T08:00:32.737Z,35.94
2023-04-04T08:05:38.049Z,34.35
2023-04-04T08:10:40.015Z,34.88
2023-04-04T08:15:42.155Z,34.36
2023-04-04T08:20:44.168Z,34.32
2023-04-04T08:25:46.998Z,33.70
2023-04-04T08:30:48.612Z,33.06
2023-04-04T08:35:51.122Z,32.56
2023-04-04T08:40:55.879Z,32.67
2023-04-04T08:45:59.006Z,33.02
2023-04-04T08:51:03.394Z,32.28
2023-04-04T08:56:05.609Z,32.48
2023-04-04T09:01:07.483Z,32.20
2023-04-04T09:06:10.341Z,32.56
2023-04-04T09:11:12.766Z,31.93
2023-04-04T09:16:14.919Z,31.99
2023-04-04T09:21:16.514Z,31.94
2023-04-04T09:26:18.105Z,31.51
2023-04-04T09:31:20.232Z,31.29
2023-04-04T09:36:22.544Z,32.52
2023-04-04T09:41:26.338Z,32.04
2023-04-04T09:46:28.306Z,32.05
2023-04-04T09:51:38.457Z,31.65
2023-04-04T09:56:43.406Z,31.96
2023-04-04T10:01:46.281Z,32.06
2023-04-04T10:06:48.366Z,30.65
2023-04-04T10:11:50.060Z,30.05
2023-04-04T10:16:56.886Z,30.42
2023-04-04T10:21:59.004Z,30.34
2023-04-04T10:27:00.761Z,30.26
2023-04-04T10:32:06.222Z,30.33
2023-04-04T10:37:13.516Z,29.68
2023-04-04T10:42:18.512Z,29.71
2023-04-04T10:47:23.480Z,28.41
2023-04-04T10:52:28.702Z,27.05
2023-04-04T10:57:30.751Z,27.49
2023-04-04T11:02:55.127Z,27.78
2023-04-04T11:08:07.642Z,27.43
2023-04-04T11:13:27.304Z,26.22
2023-04-04T11:18:34.118Z,26.59
2023-04-04T11:23:50.815Z,27.70
2023-04-04T11:28:52.471Z,27.46
2023-04-04T11:34:04.592Z,26.97
2023-04-04T11:39:19.883Z,27.28
2023-04-04T11:44:25.172Z,28.13
2023-04-04T11:49:29.829Z,27.53
2023-04-04T11:54:32.527Z,27.17
2023-04-04T11:59:34.997Z,26.35
2023-04-04T12:04:38.887Z,26.91
2023-04-04T12:09:42.453Z,27.49
2023-04-04T12:14:44.624Z,25.81
2023-04-04T12:19:46.954Z,27.09
2023-04-04T12:24:48.843Z,26.07
2023-04-04T12:29:50.789Z,26.99
2023-04-04T12:34:52.844Z,26.19
2023-04-04T12:39:58.139Z,26.04
2023-04-04T12:45:04.507Z,25.90
2023-04-04T12:50:09.073Z,26.50
2023-04-04T12:55:11.124Z,25.94
2023-04-04T13:00:14.004Z,27.08
2023-04-04T13:05:17.962Z,26.75
2023-04-04T13:10:21.487Z,25.62
2023-04-04T13:15:23.806Z,26.35
2023-04-04T13:20:26.830Z,26.12
2023-04-04T13:25:28.506Z,25.60
2023-04-04T13:30:30.147Z,25.89
2023-04-04T13:35:32.095Z,25.75
2023-04-04T13:40:33.793Z,25.90
2023-04-04T13:45:35.565Z,25.43
2023-04-04T13:50:39.433Z,26.03
2023-04-04T13:55:47.795Z,25.51
2023-04-04T14:01:07.219Z,26.62
2023-04-04T14:06:10.691Z,25.27
2023-04-04T14:11:16.635Z,24.82
2023-04-04T14:16:18.461Z,24.10
2023-04-04T14:21:20.295Z,26.04
2023-04-04T14:26:21.946Z,25.47
2023-04-04T14:31:23.704Z,25.52
2023-04-04T14:36:26.183Z,24.72
2023-04-04T14:41:28.514Z,25.55
2023-04-04T14:46:30.999Z,25.85
2023-04-04T14:51:33.373Z,25.52
2023-04-04T14:56:34.994Z,24.70
2023-04-04T15:01:36.762Z,24.25
2023-04-04T15:06:39.397Z,24.76
2023-04-04T15:11:41.129Z,24.59
2023-04-04T15:16:42.718Z,23.97
2023-04-04T15:21:45.318Z,23.85
2023-04-04T15:26:46.922Z,25.02
2023-04-04T15:31:48.623Z,26.35
2023-04-04T15:36:52.171Z,26.71
2023-04-04T15:41:53.847Z,26.95
2023-04-04T15:46:55.547Z,26.88
2023-04-04T15:51:57.135Z,26.86
2023-04-04T15:56:58.749Z,27.34
2023-04-04T16:02:00.521Z,28.29
2023-04-04T16:07:02.097Z,28.82
2023-04-04T16:12:03.758Z,28.81
2023-04-04T16:17:05.519Z,28.83
2023-04-04T16:22:07.167Z,28.91
2023-04-04T16:27:08.932Z,28.85
2023-04-04T16:32:10.655Z,29.25
2023-04-04T16:37:13.224Z,28.87
2023-04-04T16:42:19.272Z,28.96
2023-04-04T16:47:20.997Z,28.73
2023-04-04T16:52:22.594Z,29.56
2023-04-04T16:57:24.682Z,29.46
2023-04-04T17:02:26.792Z,29.42
2023-04-04T17:07:28.400Z,29.67
2023-04-04T17:12:30.042Z,30.16
2023-04-04T17:17:32.019Z,29.72
2023-04-04T17:22:33.667Z,30.63
2023-04-04T17:27:35.912Z,30.43
2023-04-04T17:32:37.608Z,30.63
2023-04-04T17:37:39.361Z,30.63
2023-04-04T17:42:41.845Z,31.44
2023-04-04T17:47:44.898Z,30.54
2023-04-04T17:52:46.798Z,30.97
2023-04-04T17:57:49.016Z,30.78
2023-04-04T18:02:51.097Z,30.58
2023-04-04T18:07:53.419Z,31.10
2023-04-04T18:12:55.470Z,31.12
2023-04-04T18:17:57.656Z,31.52
2023-04-04T18:23:01.395Z,31.50
2023-04-04T18:28:03.250Z,31.26
2023-04-04T18:33:04.971Z,30.93
2023-04-04T18:38:06.556Z,31.61
2023-04-04T18:49:34.862Z,31.98
2023-04-04T18:54:36.742Z,32.77
2023-04-04T18:59:38.297Z,32.83
2023-04-04T19:04:41.596Z,32.95
2023-04-04T19:09:44.696Z,32.51
2023-04-04T19:14:46.914Z,32.72
2023-04-04T19:19:49.261Z,32.60
2023-04-04T19:24:51.210Z,32.85
2023-04-04T19:29:55.215Z,33.59
2023-04-04T19:34:59.413Z,33.78
2023-04-04T19:40:01.916Z,34.62
2023-04-04T19:45:12.718Z,35.66
2023-04-04T19:50:34.974Z,35.84
2023-04-04T19:55:40.033Z,36.68
2023-04-04T20:00:42.470Z,36.11
2023-04-04T20:05:44.150Z,36.58
2023-04-04T20:10:46.355Z,36.91
2023-04-04T20:15:48.860Z,36.63
2023-04-04T20:21:05.071Z,37.01
2023-04-04T20:26:08.657Z,37.29
2023-04-04T20:31:17.044Z,37.83
2023-04-04T20:36:21.846Z,38.87
2023-04-04T20:41:24.758Z,39.25
2023-04-04T20:46:28.011Z,37.78
2023-04-04T20:51:31.456Z,38.22
2023-04-04T20:56:43.730Z,37.69
2023-04-04T21:01:45.592Z,39.27
2023-04-04T21:06:47.417Z,37.96
2023-04-04T21:11:48.983Z,37.82
2023-04-04T21:16:51.424Z,37.92
2023-04-04T21:21:52.988Z,38.02
2023-04-04T21:26:54.584Z,38.04
2023-04-04T21:31:57.221Z,38.33
2023-04-04T21:37:03.142Z,40.20
2023-04-04T21:42:07.951Z,38.91
2023-04-04T21:47:10.765Z,38.93
2023-04-04T21:52:12.623Z,38.73
2023-04-04T21:57:14.259Z,39.13
2023-04-04T22:02:15.948Z,39.46
2023-04-04T22:07:17.561Z,40.15
2023-04-04T22:12:19.472Z,40.09
2023-04-04T22:17:24.097Z,40.25
2023-04-04T22:22:30.026Z,39.75
2023-04-04T22:27:35.387Z,39.65
2023-04-04T22:32:39.350Z,40.77
2023-04-04T22:37:41.470Z,41.20
2023-04-04T22:42:43.061Z,39.82
2023-04-04T22:47:47.266Z,39.99
2023-04-04T22:52:49.264Z,39.79
2023-04-04T22:57:51.090Z,40.40
2023-04-04T23:02:52.832Z,41.06
2023-04-04T23:07:54.637Z,40.85
2023-04-04T23:12:56.571Z,41.55
2023-04-04T23:17:58.279Z,41.58
2023-04-04T23:22:59.981Z,41.10
2023-04-04T23:28:01.627Z,41.25
2023-04-04T23:33:03.280Z,41.28
2023-04-04T23:38:04.930Z,41.12
2023-04-04T23:43:06.607Z,41.37
2023-04-04T23:48:08.807Z,41.34
2023-04-04T23:53:13.310Z,41.43
2023-04-04T23:58:15.161Z,41.99
